sensor_id;sensor_type;location;lat;lon;timestamp;pressure;altitude;pressure_sealevel;temperature;humidity
74973;BME280;63529;56.320;43.990;2023-04-19T00:01:40;100739.00;;;7.72;48.22
74973;BME280;63529;56.320;43.990;2023-04-19T00:04:07;100741.91;;;7.71;48.23
74973;BME280;63529;56.320;43.990;2023-04-19T00:06:33;100735.16;;;7.68;48.50
74973;BME280;63529;56.320;43.990;2023-04-19T00:08:58;100742.94;;;7.70;48.34
74973;BME280;63529;56.320;43.990;2023-04-19T00:11:24;100742.72;;;7.71;48.53
74973;BME280;63529;56.320;43.990;2023-04-19T00:13:50;100745.13;;;7.73;48.38
74973;BME280;63529;56.320;43.990;2023-04-19T00:16:16;100734.50;;;7.73;48.84
74973;BME280;63529;56.320;43.990;2023-04-19T00:18:42;100739.59;;;7.74;48.71
74973;BME280;63529;56.320;43.990;2023-04-19T00:21:08;100735.69;;;7.77;48.68
74973;BME280;63529;56.320;43.990;2023-04-19T00:23:34;100736.50;;;7.77;48.70
74973;BME280;63529;56.320;43.990;2023-04-19T00:26:03;100736.72;;;7.76;48.99
74973;BME280;63529;56.320;43.990;2023-04-19T00:28:29;100735.91;;;7.75;48.99
74973;BME280;63529;56.320;43.990;2023-04-19T00:30:55;100742.25;;;7.74;48.96
74973;BME280;63529;56.320;43.990;2023-04-19T00:33:21;100740.88;;;7.72;48.94
74973;BME280;63529;56.320;43.990;2023-04-19T00:35:47;100747.22;;;7.71;49.09
74973;BME280;63529;56.320;43.990;2023-04-19T00:38:13;100748.44;;;7.68;48.96
74973;BME280;63529;56.320;43.990;2023-04-19T00:40:39;100744.63;;;7.64;49.30
74973;BME280;63529;56.320;43.990;2023-04-19T00:43:05;100738.69;;;7.62;48.96
74973;BME280;63529;56.320;43.990;2023-04-19T00:45:34;100739.72;;;7.61;49.46
74973;BME280;63529;56.320;43.990;2023-04-19T00:48:01;100743.44;;;7.60;49.34
74973;BME280;63529;56.320;43.990;2023-04-19T00:50:27;100747.13;;;7.59;49.50
74973;BME280;63529;56.320;43.990;2023-04-19T00:52:54;100751.03;;;7.56;49.38
74973;BME280;63529;56.320;43.990;2023-04-19T00:55:23;100747.78;;;7.54;49.62
74973;BME280;63529;56.320;43.990;2023-04-19T00:57:49;100742.69;;;7.53;49.32
74973;BME280;63529;56.320;43.990;2023-04-19T01:00:16;100743.72;;;7.52;49.15
74973;BME280;63529;56.320;43.990;2023-04-19T01:02:43;100754.75;;;7.49;49.75
74973;BME280;63529;56.320;43.990;2023-04-19T01:05:10;100749.91;;;7.46;49.47
74973;BME280;63529;56.320;43.990;2023-04-19T01:07:38;100756.25;;;7.45;49.69
74973;BME280;63529;56.320;43.990;2023-04-19T01:10:04;100761.97;;;7.42;49.38
74973;BME280;63529;56.320;43.990;2023-04-19T01:12:30;100758.97;;;7.38;49.64
74973;BME280;63529;56.320;43.990;2023-04-19T01:14:56;100763.66;;;7.36;49.81
74973;BME280;63529;56.320;43.990;2023-04-19T01:17:22;100754.53;;;7.32;50.02
74973;BME280;63529;56.320;43.990;2023-04-19T01:19:48;100758.22;;;7.31;49.81
74973;BME280;63529;56.320;43.990;2023-04-19T01:22:17;100760.25;;;7.29;50.22
74973;BME280;63529;56.320;43.990;2023-04-19T01:24:43;100753.53;;;7.26;50.10
74973;BME280;63529;56.320;43.990;2023-04-19T01:27:09;100762.78;;;7.24;49.93
74973;BME280;63529;56.320;43.990;2023-04-19T01:29:35;100759.72;;;7.20;49.79
74973;BME280;63529;56.320;43.990;2023-04-19T01:32:01;100756.03;;;7.21;50.19
74973;BME280;63529;56.320;43.990;2023-04-19T01:34:27;100749.09;;;7.20;50.05
74973;BME280;63529;56.320;43.990;2023-04-19T01:36:53;100759.94;;;7.19;49.87
74973;BME280;63529;56.320;43.990;2023-04-19T01:39:18;100758.91;;;7.20;50.06
74973;BME280;63529;56.320;43.990;2023-04-19T01:41:44;100755.44;;;7.19;50.04
74973;BME280;63529;56.320;43.990;2023-04-19T01:44:11;100765.25;;;7.19;49.86
74973;BME280;63529;56.320;43.990;2023-04-19T01:46:36;100753.00;;;7.18;49.92
74973;BME280;63529;56.320;43.990;2023-04-19T01:49:04;100767.91;;;7.19;50.06
74973;BME280;63529;56.320;43.990;2023-04-19T01:51:30;100763.41;;;7.19;49.86
74973;BME280;63529;56.320;43.990;2023-04-19T01:53:56;100764.00;;;7.21;50.19
74973;BME280;63529;56.320;43.990;2023-04-19T01:56:22;100764.22;;;7.20;50.46
74973;BME280;63529;56.320;43.990;2023-04-19T01:58:48;100770.13;;;7.22;50.25
74973;BME280;63529;56.320;43.990;2023-04-19T02:01:14;100764.59;;;7.23;50.42
74973;BME280;63529;56.320;43.990;2023-04-19T02:03:40;100768.91;;;7.24;50.23
74973;BME280;63529;56.320;43.990;2023-04-19T02:06:10;100768.44;;;7.27;50.33
74973;BME280;63529;56.320;43.990;2023-04-19T02:08:37;100768.84;;;7.31;50.33
74973;BME280;63529;56.320;43.990;2023-04-19T02:11:11;100759.63;;;7.33;50.26
74973;BME280;63529;56.320;43.990;2023-04-19T02:13:40;100758.16;;;7.38;50.44
74973;BME280;63529;56.320;43.990;2023-04-19T02:16:07;100757.28;;;7.44;50.24
74973;BME280;63529;56.320;43.990;2023-04-19T02:18:33;100762.31;;;7.52;50.26
74973;BME280;63529;56.320;43.990;2023-04-19T02:21:04;100755.31;;;7.57;50.19
74973;BME280;63529;56.320;43.990;2023-04-19T02:23:30;100768.72;;;7.62;50.02
74973;BME280;63529;56.320;43.990;2023-04-19T02:25:56;100761.72;;;7.68;49.95
74973;BME280;63529;56.320;43.990;2023-04-19T02:28:22;100762.13;;;7.72;50.37
74973;BME280;63529;56.320;43.990;2023-04-19T02:30:48;100764.72;;;7.78;50.13
74973;BME280;63529;56.320;43.990;2023-04-19T02:33:14;100755.47;;;7.81;49.84
74973;BME280;63529;56.320;43.990;2023-04-19T02:35:40;100760.72;;;7.87;50.07
74973;BME280;63529;56.320;43.990;2023-04-19T02:38:06;100762.50;;;7.94;49.93
74973;BME280;63529;56.320;43.990;2023-04-19T02:40:32;100761.59;;;8.00;50.00
74973;BME280;63529;56.320;43.990;2023-04-19T02:42:58;100763.97;;;8.08;49.96
74973;BME280;63529;56.320;43.990;2023-04-19T02:45:24;100769.00;;;8.16;49.85
74973;BME280;63529;56.320;43.990;2023-04-19T02:47:49;100764.66;;;8.22;49.95
74973;BME280;63529;56.320;43.990;2023-04-19T02:50:16;100764.56;;;8.28;49.68
74973;BME280;63529;56.320;43.990;2023-04-19T02:52:47;100762.03;;;8.33;49.99
74973;BME280;63529;56.320;43.990;2023-04-19T02:55:12;100761.16;;;8.39;49.67
74973;BME280;63529;56.320;43.990;2023-04-19T02:57:39;100770.91;;;8.46;49.46
74973;BME280;63529;56.320;43.990;2023-04-19T03:00:08;100775.09;;;8.53;49.49
74973;BME280;63529;56.320;43.990;2023-04-19T03:02:42;100768.06;;;8.59;49.48
74973;BME280;63529;56.320;43.990;2023-04-19T03:05:09;100766.72;;;8.68;49.32
74973;BME280;63529;56.320;43.990;2023-04-19T03:07:35;100772.53;;;8.77;48.86
74973;BME280;63529;56.320;43.990;2023-04-19T03:10:01;100770.59;;;8.84;48.89
74973;BME280;63529;56.320;43.990;2023-04-19T03:12:29;100768.19;;;8.94;48.40
74973;BME280;63529;56.320;43.990;2023-04-19T03:14:55;100772.16;;;9.03;48.29
74973;BME280;63529;56.320;43.990;2023-04-19T03:17:21;100769.94;;;9.12;47.88
74973;BME280;63529;56.320;43.990;2023-04-19T03:19:47;100779.25;;;9.21;47.88
74973;BME280;63529;56.320;43.990;2023-04-19T03:22:13;100781.09;;;9.32;47.60
74973;BME280;63529;56.320;43.990;2023-04-19T03:24:39;100783.56;;;9.45;47.91
74973;BME280;63529;56.320;43.990;2023-04-19T03:27:19;100782.75;;;9.57;48.41
74973;BME280;63529;56.320;43.990;2023-04-19T03:29:50;100783.56;;;9.69;48.38
74973;BME280;63529;56.320;43.990;2023-04-19T03:32:15;100785.75;;;9.84;48.50
74973;BME280;63529;56.320;43.990;2023-04-19T03:34:41;100781.31;;;10.01;48.34
74973;BME280;63529;56.320;43.990;2023-04-19T03:37:07;100788.03;;;10.27;48.47
74973;BME280;63529;56.320;43.990;2023-04-19T03:39:33;100793.13;;;11.31;47.85
74973;BME280;63529;56.320;43.990;2023-04-19T03:42:02;100789.06;;;14.05;43.74
74973;BME280;63529;56.320;43.990;2023-04-19T03:44:49;100778.63;;;17.55;38.06
74973;BME280;63529;56.320;43.990;2023-04-19T03:47:16;100782.28;;;20.18;33.73
74973;BME280;63529;56.320;43.990;2023-04-19T03:49:45;100780.84;;;22.31;30.74
74973;BME280;63529;56.320;43.990;2023-04-19T03:52:11;100781.72;;;24.03;28.45
74973;BME280;63529;56.320;43.990;2023-04-19T03:54:37;100788.19;;;25.45;26.71
74973;BME280;63529;56.320;43.990;2023-04-19T03:57:07;100784.63;;;26.67;25.31
74973;BME280;63529;56.320;43.990;2023-04-19T03:59:36;100785.88;;;27.69;24.33
74973;BME280;63529;56.320;43.990;2023-04-19T04:02:02;100788.00;;;28.43;23.51
74973;BME280;63529;56.320;43.990;2023-04-19T04:04:29;100789.84;;;29.12;22.66
74973;BME280;63529;56.320;43.990;2023-04-19T04:06:54;100787.47;;;29.80;22.21
74973;BME280;63529;56.320;43.990;2023-04-19T04:09:20;100791.50;;;30.35;21.66
74973;BME280;63529;56.320;43.990;2023-04-19T04:11:46;100781.69;;;30.98;21.04
74973;BME280;63529;56.320;43.990;2023-04-19T04:14:12;100790.56;;;31.62;20.36
74973;BME280;63529;56.320;43.990;2023-04-19T04:16:39;100779.56;;;32.21;19.84
74973;BME280;63529;56.320;43.990;2023-04-19T04:19:05;100779.09;;;32.81;19.35
74973;BME280;63529;56.320;43.990;2023-04-19T04:21:35;100785.16;;;33.36;18.48
74973;BME280;63529;56.320;43.990;2023-04-19T04:24:02;100780.47;;;33.94;18.31
74973;BME280;63529;56.320;43.990;2023-04-19T04:26:52;100775.16;;;34.53;17.48
74973;BME280;63529;56.320;43.990;2023-04-19T04:29:22;100772.59;;;34.91;17.16
74973;BME280;63529;56.320;43.990;2023-04-19T04:31:50;100770.56;;;35.05;17.08
74973;BME280;63529;56.320;43.990;2023-04-19T04:34:20;100776.84;;;35.17;16.79
74973;BME280;63529;56.320;43.990;2023-04-19T04:36:51;100777.16;;;35.26;16.78
74973;BME280;63529;56.320;43.990;2023-04-19T04:39:19;100777.09;;;35.37;16.64
74973;BME280;63529;56.320;43.990;2023-04-19T04:41:47;100782.91;;;35.53;16.39
74973;BME280;63529;56.320;43.990;2023-04-19T04:44:13;100783.13;;;35.76;16.25
74973;BME280;63529;56.320;43.990;2023-04-19T04:46:41;100780.91;;;36.02;16.33
74973;BME280;63529;56.320;43.990;2023-04-19T04:49:10;100787.78;;;36.28;15.97
74973;BME280;63529;56.320;43.990;2023-04-19T04:51:39;100779.13;;;36.56;15.86
74973;BME280;63529;56.320;43.990;2023-04-19T04:54:05;100784.72;;;36.83;15.44
74973;BME280;63529;56.320;43.990;2023-04-19T04:56:31;100781.25;;;37.06;15.00
74973;BME280;63529;56.320;43.990;2023-04-19T04:58:57;100788.84;;;37.29;14.48
74973;BME280;63529;56.320;43.990;2023-04-19T05:01:31;100789.63;;;37.57;14.47
74973;BME280;63529;56.320;43.990;2023-04-19T05:03:57;100792.69;;;37.89;14.41
74973;BME280;63529;56.320;43.990;2023-04-19T05:06:23;100795.09;;;38.31;14.17
74973;BME280;63529;56.320;43.990;2023-04-19T05:08:49;100786.66;;;38.74;13.34
74973;BME280;63529;56.320;43.990;2023-04-19T05:11:26;100786.06;;;39.35;13.24
74973;BME280;63529;56.320;43.990;2023-04-19T05:13:52;100795.44;;;39.90;13.10
74973;BME280;63529;56.320;43.990;2023-04-19T05:16:18;100785.22;;;40.41;12.27
74973;BME280;63529;56.320;43.990;2023-04-19T05:18:46;100793.84;;;40.89;11.88
74973;BME280;63529;56.320;43.990;2023-04-19T05:21:12;100788.03;;;41.34;11.70
74973;BME280;63529;56.320;43.990;2023-04-19T05:23:39;100790.97;;;41.78;11.19
74973;BME280;63529;56.320;43.990;2023-04-19T05:26:06;100788.59;;;42.11;10.76
74973;BME280;63529;56.320;43.990;2023-04-19T05:28:32;100787.75;;;42.23;10.40
74973;BME280;63529;56.320;43.990;2023-04-19T05:31:18;100794.56;;;42.35;10.27
74973;BME280;63529;56.320;43.990;2023-04-19T05:34:05;100790.41;;;42.71;10.12
74973;BME280;63529;56.320;43.990;2023-04-19T05:36:31;100799.50;;;42.84;9.95
74973;BME280;63529;56.320;43.990;2023-04-19T05:38:57;100800.84;;;43.01;9.75
74973;BME280;63529;56.320;43.990;2023-04-19T05:41:23;100796.56;;;43.19;9.55
74973;BME280;63529;56.320;43.990;2023-04-19T05:43:48;100794.91;;;43.40;9.34
74973;BME280;63529;56.320;43.990;2023-04-19T05:46:14;100793.69;;;43.59;9.22
74973;BME280;63529;56.320;43.990;2023-04-19T05:48:40;100803.69;;;43.51;9.39
74973;BME280;63529;56.320;43.990;2023-04-19T05:51:29;100801.22;;;43.13;9.61
74973;BME280;63529;56.320;43.990;2023-04-19T05:54:09;100804.50;;;43.11;9.78
74973;BME280;63529;56.320;43.990;2023-04-19T05:56:39;100801.69;;;43.11;9.66
74973;BME280;63529;56.320;43.990;2023-04-19T05:59:05;100801.84;;;43.17;9.51
74973;BME280;63529;56.320;43.990;2023-04-19T06:01:31;100807.75;;;43.10;9.81
74973;BME280;63529;56.320;43.990;2023-04-19T06:03:57;100801.50;;;42.74;9.61
74973;BME280;63529;56.320;43.990;2023-04-19T06:06:23;100808.13;;;42.37;9.78
74973;BME280;63529;56.320;43.990;2023-04-19T06:08:49;100801.59;;;42.18;9.72
74973;BME280;63529;56.320;43.990;2023-04-19T06:11:15;100804.34;;;42.52;9.66
74973;BME280;63529;56.320;43.990;2023-04-19T06:13:41;100805.28;;;43.21;9.37
74973;BME280;63529;56.320;43.990;2023-04-19T06:16:09;100807.47;;;43.84;9.19
74973;BME280;63529;56.320;43.990;2023-04-19T06:18:35;100814.03;;;44.36;8.69
74973;BME280;63529;56.320;43.990;2023-04-19T06:21:01;100808.56;;;44.84;8.46
74973;BME280;63529;56.320;43.990;2023-04-19T06:23:27;100808.94;;;45.10;8.50
74973;BME280;63529;56.320;43.990;2023-04-19T06:25:53;100811.47;;;45.41;8.59
74973;BME280;63529;56.320;43.990;2023-04-19T06:28:18;100809.84;;;45.73;8.16
74973;BME280;63529;56.320;43.990;2023-04-19T06:30:44;100804.22;;;46.27;7.97
74973;BME280;63529;56.320;43.990;2023-04-19T06:33:10;100805.16;;;46.83;8.06
74973;BME280;63529;56.320;43.990;2023-04-19T06:35:37;100806.44;;;47.17;7.76
74973;BME280;63529;56.320;43.990;2023-04-19T06:38:03;100811.56;;;47.54;7.91
74973;BME280;63529;56.320;43.990;2023-04-19T06:40:29;100802.16;;;47.83;7.89
74973;BME280;63529;56.320;43.990;2023-04-19T06:42:55;100801.31;;;48.23;7.75
74973;BME280;63529;56.320;43.990;2023-04-19T06:45:21;100799.50;;;48.46;7.78
74973;BME280;63529;56.320;43.990;2023-04-19T06:47:47;100795.72;;;48.60;7.92
74973;BME280;63529;56.320;43.990;2023-04-19T06:50:13;100798.22;;;48.84;7.66
74973;BME280;63529;56.320;43.990;2023-04-19T06:52:39;100796.41;;;49.18;7.61
74973;BME280;63529;56.320;43.990;2023-04-19T06:55:06;100791.66;;;49.47;7.32
74973;BME280;63529;56.320;43.990;2023-04-19T06:57:32;100793.50;;;49.67;7.26
74973;BME280;63529;56.320;43.990;2023-04-19T06:59:58;100796.69;;;49.86;6.94
74973;BME280;63529;56.320;43.990;2023-04-19T07:02:24;100799.59;;;50.31;6.91
74973;BME280;63529;56.320;43.990;2023-04-19T07:04:50;100794.16;;;50.66;6.75
74973;BME280;63529;56.320;43.990;2023-04-19T07:07:16;100799.09;;;50.83;6.55
74973;BME280;63529;56.320;43.990;2023-04-19T07:09:42;100797.78;;;50.95;6.35
74973;BME280;63529;56.320;43.990;2023-04-19T07:12:07;100798.53;;;51.01;6.23
74973;BME280;63529;56.320;43.990;2023-04-19T07:14:33;100794.94;;;50.84;6.30
74973;BME280;63529;56.320;43.990;2023-04-19T07:16:59;100791.81;;;50.98;6.31
74973;BME280;63529;56.320;43.990;2023-04-19T07:19:25;100800.53;;;51.28;6.14
74973;BME280;63529;56.320;43.990;2023-04-19T07:21:52;100796.91;;;51.34;6.11
74973;BME280;63529;56.320;43.990;2023-04-19T07:24:19;100799.19;;;51.46;6.04
74973;BME280;63529;56.320;43.990;2023-04-19T07:26:45;100792.91;;;51.59;5.97
74973;BME280;63529;56.320;43.990;2023-04-19T07:29:10;100798.72;;;51.83;6.01
74973;BME280;63529;56.320;43.990;2023-04-19T07:31:36;100796.19;;;52.16;5.64
74973;BME280;63529;56.320;43.990;2023-04-19T07:34:02;100798.19;;;52.26;5.52
74973;BME280;63529;56.320;43.990;2023-04-19T07:36:28;100805.44;;;52.27;5.48
74973;BME280;63529;56.320;43.990;2023-04-19T07:38:55;100798.59;;;52.36;5.49
74973;BME280;63529;56.320;43.990;2023-04-19T07:41:21;100796.59;;;52.61;5.63
74973;BME280;63529;56.320;43.990;2023-04-19T07:43:48;100799.47;;;52.85;5.60
74973;BME280;63529;56.320;43.990;2023-04-19T07:46:14;100784.44;;;53.09;5.87
74973;BME280;63529;56.320;43.990;2023-04-19T07:48:43;100782.16;;;53.27;5.78
74973;BME280;63529;56.320;43.990;2023-04-19T07:51:10;100775.50;;;53.19;5.93
74973;BME280;63529;56.320;43.990;2023-04-19T07:53:37;100768.91;;;53.05;5.88
74973;BME280;63529;56.320;43.990;2023-04-19T07:56:04;100783.38;;;53.12;5.66
74973;BME280;63529;56.320;43.990;2023-04-19T07:58:30;100773.00;;;53.09;5.75
74973;BME280;63529;56.320;43.990;2023-04-19T08:00:56;100779.63;;;52.99;5.66
74973;BME280;63529;56.320;43.990;2023-04-19T08:03:21;100779.41;;;52.97;5.83
74973;BME280;63529;56.320;43.990;2023-04-19T08:05:47;100785.78;;;52.78;5.55
74973;BME280;63529;56.320;43.990;2023-04-19T08:08:13;100788.94;;;52.50;5.88
74973;BME280;63529;56.320;43.990;2023-04-19T08:10:39;100785.94;;;52.37;6.02
74973;BME280;63529;56.320;43.990;2023-04-19T08:13:05;100774.16;;;52.46;5.87
74973;BME280;63529;56.320;43.990;2023-04-19T08:15:32;100771.41;;;52.35;5.97
74973;BME280;63529;56.320;43.990;2023-04-19T08:17:58;100769.69;;;52.26;5.82
74973;BME280;63529;56.320;43.990;2023-04-19T08:20:24;100768.88;;;51.96;5.84
74973;BME280;63529;56.320;43.990;2023-04-19T08:22:51;100770.00;;;51.76;5.91
74973;BME280;63529;56.320;43.990;2023-04-19T08:25:18;100778.91;;;51.61;5.96
74973;BME280;63529;56.320;43.990;2023-04-19T08:27:48;100766.34;;;51.87;5.89
74973;BME280;63529;56.320;43.990;2023-04-19T08:30:14;100776.78;;;52.14;5.89
74973;BME280;63529;56.320;43.990;2023-04-19T08:32:40;100775.91;;;51.89;5.88
74973;BME280;63529;56.320;43.990;2023-04-19T08:35:06;100771.97;;;51.45;5.94
74973;BME280;63529;56.320;43.990;2023-04-19T08:37:33;100767.38;;;51.37;5.98
74973;BME280;63529;56.320;43.990;2023-04-19T08:39:58;100771.31;;;51.28;5.91
74973;BME280;63529;56.320;43.990;2023-04-19T08:42:24;100770.88;;;50.96;5.89
74973;BME280;63529;56.320;43.990;2023-04-19T08:44:51;100772.50;;;50.46;6.03
74973;BME280;63529;56.320;43.990;2023-04-19T08:47:18;100760.31;;;50.40;6.04
74973;BME280;63529;56.320;43.990;2023-04-19T08:49:44;100765.78;;;50.49;6.00
74973;BME280;63529;56.320;43.990;2023-04-19T08:52:12;100764.97;;;50.60;5.90
74973;BME280;63529;56.320;43.990;2023-04-19T08:54:40;100765.00;;;50.49;6.22
74973;BME280;63529;56.320;43.990;2023-04-19T08:57:07;100761.59;;;50.06;6.17
74973;BME280;63529;56.320;43.990;2023-04-19T08:59:33;100764.06;;;49.53;6.29
74973;BME280;63529;56.320;43.990;2023-04-19T09:02:00;100765.59;;;48.00;6.73
74973;BME280;63529;56.320;43.990;2023-04-19T09:04:26;100761.03;;;44.77;8.00
74973;BME280;63529;56.320;43.990;2023-04-19T09:06:52;100765.00;;;41.52;8.92
74973;BME280;63529;56.320;43.990;2023-04-19T09:09:26;100758.00;;;38.70;10.32
74973;BME280;63529;56.320;43.990;2023-04-19T09:11:55;100749.56;;;36.35;11.48
74973;BME280;63529;56.320;43.990;2023-04-19T09:14:25;100753.78;;;34.53;12.69
74973;BME280;63529;56.320;43.990;2023-04-19T09:16:51;100753.91;;;33.07;13.73
74973;BME280;63529;56.320;43.990;2023-04-19T09:19:17;100735.19;;;31.88;14.21
74973;BME280;63529;56.320;43.990;2023-04-19T09:21:43;100741.47;;;30.97;15.18
74973;BME280;63529;56.320;43.990;2023-04-19T09:24:09;100742.22;;;30.30;15.76
74973;BME280;63529;56.320;43.990;2023-04-19T09:26:35;100733.13;;;29.73;16.08
74973;BME280;63529;56.320;43.990;2023-04-19T09:29:06;100736.22;;;29.22;16.35
74973;BME280;63529;56.320;43.990;2023-04-19T09:31:34;100732.78;;;28.67;16.73
74973;BME280;63529;56.320;43.990;2023-04-19T09:34:14;100731.72;;;28.17;17.20
74973;BME280;63529;56.320;43.990;2023-04-19T09:36:41;100726.78;;;27.72;17.06
74973;BME280;63529;56.320;43.990;2023-04-19T09:39:08;100726.84;;;27.28;17.62
74973;BME280;63529;56.320;43.990;2023-04-19T09:41:34;100727.84;;;26.79;17.83
74973;BME280;63529;56.320;43.990;2023-04-19T09:44:09;100723.78;;;26.33;18.06
74973;BME280;63529;56.320;43.990;2023-04-19T09:46:36;100717.81;;;25.91;18.46
74973;BME280;63529;56.320;43.990;2023-04-19T09:49:16;100725.75;;;25.47;18.79
74973;BME280;63529;56.320;43.990;2023-04-19T09:51:46;100732.09;;;25.14;19.08
74973;BME280;63529;56.320;43.990;2023-04-19T09:54:15;100726.19;;;24.92;19.33
74973;BME280;63529;56.320;43.990;2023-04-19T09:56:41;100728.53;;;24.81;19.54
74973;BME280;63529;56.320;43.990;2023-04-19T09:59:08;100732.16;;;24.73;19.53
74973;BME280;63529;56.320;43.990;2023-04-19T10:01:45;100731.16;;;24.56;19.58
74973;BME280;63529;56.320;43.990;2023-04-19T10:04:13;100721.09;;;24.27;19.60
74973;BME280;63529;56.320;43.990;2023-04-19T10:06:52;100731.38;;;24.01;20.00
74973;BME280;63529;56.320;43.990;2023-04-19T10:09:20;100727.03;;;23.70;20.31
74973;BME280;63529;56.320;43.990;2023-04-19T10:11:55;100723.31;;;23.37;20.54
74973;BME280;63529;56.320;43.990;2023-04-19T10:14:24;100721.47;;;23.11;20.72
74973;BME280;63529;56.320;43.990;2023-04-19T10:16:52;100720.53;;;22.98;20.72
74973;BME280;63529;56.320;43.990;2023-04-19T10:19:19;100725.81;;;22.86;21.04
74973;BME280;63529;56.320;43.990;2023-04-19T10:21:47;100727.06;;;22.80;20.81
74973;BME280;63529;56.320;43.990;2023-04-19T10:24:14;100718.59;;;22.82;20.87
74973;BME280;63529;56.320;43.990;2023-04-19T10:27:11;100719.72;;;22.72;21.02
74973;BME280;63529;56.320;43.990;2023-04-19T10:30:03;100729.00;;;22.54;21.04
74973;BME280;63529;56.320;43.990;2023-04-19T10:32:39;100716.84;;;22.34;21.06
74973;BME280;63529;56.320;43.990;2023-04-19T10:35:24;100706.13;;;22.29;21.15
74973;BME280;63529;56.320;43.990;2023-04-19T10:43:24;100710.47;;;22.38;21.20
74973;BME280;63529;56.320;43.990;2023-04-19T10:45:51;100710.78;;;22.45;21.50
74973;BME280;63529;56.320;43.990;2023-04-19T10:54:07;100695.44;;;22.50;21.63
74973;BME280;63529;56.320;43.990;2023-04-19T11:01:53;100691.72;;;22.45;21.34
74973;BME280;63529;56.320;43.990;2023-04-19T11:07:00;100685.94;;;22.56;21.43
74973;BME280;63529;56.320;43.990;2023-04-19T11:09:36;100686.28;;;22.63;21.27
74973;BME280;63529;56.320;43.990;2023-04-19T11:12:11;100682.25;;;22.69;21.21
74973;BME280;63529;56.320;43.990;2023-04-19T11:14:41;100678.56;;;22.73;21.11
74973;BME280;63529;56.320;43.990;2023-04-19T11:17:19;100690.44;;;22.86;20.97
74973;BME280;63529;56.320;43.990;2023-04-19T11:19:52;100684.63;;;23.05;20.97
74973;BME280;63529;56.320;43.990;2023-04-19T11:22:36;100679.56;;;23.33;20.56
74973;BME280;63529;56.320;43.990;2023-04-19T11:25:12;100672.38;;;23.67;20.28
74973;BME280;63529;56.320;43.990;2023-04-19T11:27:40;100677.22;;;23.91;20.17
74973;BME280;63529;56.320;43.990;2023-04-19T11:30:16;100675.25;;;24.00;20.02
74973;BME280;63529;56.320;43.990;2023-04-19T11:32:54;100674.28;;;23.96;20.13
74973;BME280;63529;56.320;43.990;2023-04-19T11:35:24;100675.88;;;23.76;20.26
74973;BME280;63529;56.320;43.990;2023-04-19T11:37:50;100680.09;;;23.65;20.52
74973;BME280;63529;56.320;43.990;2023-04-19T11:40:18;100664.72;;;23.51;20.42
74973;BME280;63529;56.320;43.990;2023-04-19T11:42:45;100665.63;;;23.35;20.68
74973;BME280;63529;56.320;43.990;2023-04-19T11:45:28;100665.03;;;23.20;20.87
74973;BME280;63529;56.320;43.990;2023-04-19T11:47:55;100666.34;;;23.06;20.91
74973;BME280;63529;56.320;43.990;2023-04-19T11:50:39;100661.28;;;22.95;21.14
74973;BME280;63529;56.320;43.990;2023-04-19T11:53:16;100668.81;;;22.90;21.26
74973;BME280;63529;56.320;43.990;2023-04-19T11:55:53;100673.28;;;22.86;21.53
74973;BME280;63529;56.320;43.990;2023-04-19T11:58:32;100663.69;;;22.71;21.36
74973;BME280;63529;56.320;43.990;2023-04-19T12:01:08;100659.56;;;22.39;21.67
74973;BME280;63529;56.320;43.990;2023-04-19T12:03:49;100667.25;;;22.11;21.95
74973;BME280;63529;56.320;43.990;2023-04-19T12:06:25;100663.66;;;21.93;21.87
74973;BME280;63529;56.320;43.990;2023-04-19T12:08:53;100666.84;;;21.86;21.67
74973;BME280;63529;56.320;43.990;2023-04-19T12:11:22;100659.31;;;21.83;21.75
74973;BME280;63529;56.320;43.990;2023-04-19T12:14:15;100660.19;;;22.10;22.00
74973;BME280;63529;56.320;43.990;2023-04-19T12:16:43;100660.19;;;22.27;21.31
74973;BME280;63529;56.320;43.990;2023-04-19T12:19:13;100645.97;;;22.30;20.93
74973;BME280;63529;56.320;43.990;2023-04-19T12:21:42;100643.88;;;22.27;20.77
74973;BME280;63529;56.320;43.990;2023-04-19T12:24:09;100642.78;;;22.19;21.02
74973;BME280;63529;56.320;43.990;2023-04-19T12:26:35;100648.81;;;22.08;21.33
74973;BME280;63529;56.320;43.990;2023-04-19T12:29:02;100643.84;;;22.01;21.75
74973;BME280;63529;56.320;43.990;2023-04-19T12:31:29;100641.44;;;21.91;21.56
74973;BME280;63529;56.320;43.990;2023-04-19T12:33:59;100639.34;;;21.79;21.60
74973;BME280;63529;56.320;43.990;2023-04-19T12:36:25;100645.72;;;21.66;21.65
74973;BME280;63529;56.320;43.990;2023-04-19T12:38:52;100644.06;;;21.56;21.67
74973;BME280;63529;56.320;43.990;2023-04-19T12:41:18;100639.09;;;21.50;21.67
74973;BME280;63529;56.320;43.990;2023-04-19T12:43:45;100635.44;;;21.46;21.83
74973;BME280;63529;56.320;43.990;2023-04-19T12:46:11;100638.75;;;21.43;22.20
74973;BME280;63529;56.320;43.990;2023-04-19T12:48:37;100628.22;;;21.41;22.47
74973;BME280;63529;56.320;43.990;2023-04-19T12:51:04;100635.56;;;21.40;22.50
74973;BME280;63529;56.320;43.990;2023-04-19T12:53:30;100632.66;;;21.37;22.36
74973;BME280;63529;56.320;43.990;2023-04-19T12:56:00;100636.34;;;21.32;22.17
74973;BME280;63529;56.320;43.990;2023-04-19T12:58:44;100636.97;;;21.29;22.36
74973;BME280;63529;56.320;43.990;2023-04-19T13:01:14;100638.06;;;21.28;22.62
74973;BME280;63529;56.320;43.990;2023-04-19T13:03:44;100632.94;;;21.27;22.57
74973;BME280;63529;56.320;43.990;2023-04-19T13:06:10;100636.78;;;21.26;22.30
74973;BME280;63529;56.320;43.990;2023-04-19T13:08:39;100629.72;;;21.25;22.20
74973;BME280;63529;56.320;43.990;2023-04-19T13:11:05;100634.34;;;21.24;22.27